createdAt,value
2022-08-31T00:00:34.569Z,15.00
2022-08-31T00:03:20.407Z,14.70
2022-08-31T00:05:47.721Z,14.02
2022-08-31T00:08:15.277Z,14.40
2022-08-31T00:10:45.920Z,13.55
2022-08-31T00:13:13.140Z,14.45
2022-08-31T00:15:40.196Z,14.43
2022-08-31T00:18:07.088Z,14.82
2022-08-31T00:20:35.006Z,15.20
2022-08-31T00:23:04.274Z,14.90
2022-08-31T00:25:31.996Z,14.95
2022-08-31T00:27:58.798Z,14.80
2022-08-31T00:30:26.235Z,15.07
2022-08-31T00:32:52.990Z,15.70
2022-08-31T00:35:19.783Z,15.15
2022-08-31T00:37:46.571Z,14.32
2022-08-31T00:40:13.569Z,14.70
2022-08-31T00:42:41.194Z,15.02
2022-08-31T00:45:09.879Z,14.88
2022-08-31T00:47:37.125Z,14.70
2022-08-31T00:50:09.117Z,14.88
2022-08-31T00:52:39.564Z,14.77
2022-08-31T00:55:13.128Z,15.60
2022-08-31T00:57:43.306Z,15.30
2022-08-31T01:00:14.935Z,15.00
2022-08-31T01:02:41.738Z,14.93
2022-08-31T01:05:12.003Z,15.48
2022-08-31T01:07:39.606Z,15.00
2022-08-31T01:10:08.232Z,14.85
2022-08-31T01:12:35.085Z,16.15
2022-08-31T01:15:04.835Z,16.15
2022-08-31T01:17:33.794Z,16.02
2022-08-31T01:20:38.111Z,15.68
2022-08-31T01:23:18.019Z,15.70
2022-08-31T01:25:49.003Z,15.20
2022-08-31T01:28:15.877Z,15.88
2022-08-31T01:30:44.011Z,15.05
2022-08-31T01:33:13.143Z,15.82
2022-08-31T01:35:44.734Z,15.57
2022-08-31T01:38:13.123Z,15.32
2022-08-31T01:40:57.372Z,14.48
2022-08-31T01:43:24.960Z,14.68
2022-08-31T01:45:52.171Z,14.82
2022-08-31T01:48:21.043Z,14.57
2022-08-31T01:50:48.845Z,14.30
2022-08-31T01:53:16.644Z,14.63
2022-08-31T01:55:43.739Z,14.27
2022-08-31T01:58:10.841Z,14.45
2022-08-31T02:00:52.656Z,15.38
2022-08-31T02:03:20.435Z,14.77
2022-08-31T02:05:47.208Z,15.20
2022-08-31T02:08:14.012Z,15.35
2022-08-31T02:10:40.923Z,14.85
2022-08-31T02:13:09.992Z,15.25
2022-08-31T02:15:38.106Z,14.93
2022-08-31T02:18:06.229Z,14.98
2022-08-31T02:20:33.016Z,15.07
2022-08-31T02:23:03.156Z,15.48
2022-08-31T02:25:30.420Z,15.35
2022-08-31T02:27:58.169Z,15.70
2022-08-31T02:30:25.158Z,15.32
2022-08-31T02:32:52.028Z,16.30
2022-08-31T02:35:19.051Z,15.35
2022-08-31T02:37:45.863Z,15.18
2022-08-31T02:40:14.323Z,15.57
2022-08-31T02:42:52.296Z,15.18
2022-08-31T02:45:22.530Z,16.02
2022-08-31T02:47:49.321Z,14.77
2022-08-31T02:50:34.187Z,14.40
2022-08-31T02:53:00.982Z,13.65
2022-08-31T02:55:29.308Z,14.10
2022-08-31T02:57:56.111Z,14.00
2022-08-31T03:00:24.094Z,13.85
2022-08-31T03:02:51.128Z,13.80
2022-08-31T03:05:20.717Z,14.60
2022-08-31T03:07:49.602Z,14.85
2022-08-31T03:10:20.114Z,14.57
2022-08-31T03:12:48.560Z,14.35
2022-08-31T03:15:16.543Z,14.70
2022-08-31T03:17:45.757Z,14.50
2022-08-31T03:20:14.475Z,13.90
2022-08-31T03:22:41.370Z,14.48
2022-08-31T03:25:13.156Z,14.45
2022-08-31T03:27:40.168Z,13.73
2022-08-31T03:30:11.419Z,13.27
2022-08-31T03:32:40.563Z,12.48
2022-08-31T03:35:11.612Z,11.18
2022-08-31T03:37:38.559Z,11.82
2022-08-31T03:40:06.085Z,11.00
2022-08-31T03:42:33.401Z,11.35
2022-08-31T03:45:00.701Z,11.52
2022-08-31T03:47:31.028Z,12.18
2022-08-31T03:49:59.710Z,12.23
2022-08-31T03:52:33.672Z,12.45
2022-08-31T03:55:08.257Z,12.88
2022-08-31T03:57:35.539Z,13.18
2022-08-31T04:00:04.531Z,13.27
2022-08-31T04:02:41.235Z,13.63
2022-08-31T04:05:28.343Z,13.73
2022-08-31T04:08:14.621Z,13.13
2022-08-31T04:11:15.917Z,14.05
2022-08-31T04:14:01.764Z,13.30
2022-08-31T04:16:39.780Z,13.20
2022-08-31T04:19:26.736Z,13.93
2022-08-31T04:22:13.494Z,13.93
2022-08-31T04:24:50.318Z,13.80
2022-08-31T04:27:17.195Z,14.18
2022-08-31T04:29:43.983Z,14.10
2022-08-31T04:32:10.843Z,13.85
2022-08-31T04:34:37.634Z,14.43
2022-08-31T04:37:09.774Z,14.55
2022-08-31T04:39:50.578Z,14.40
2022-08-31T04:42:18.124Z,14.25
2022-08-31T04:44:46.086Z,14.32
2022-08-31T04:47:13.002Z,14.70
2022-08-31T04:49:41.401Z,15.60
2022-08-31T04:52:08.239Z,13.63
2022-08-31T04:54:35.323Z,13.60
2022-08-31T04:57:02.122Z,14.27
2022-08-31T04:59:32.196Z,14.23
2022-08-31T05:02:37.160Z,13.52
2022-08-31T05:05:12.763Z,14.02
2022-08-31T05:07:42.744Z,13.77
2022-08-31T05:10:09.836Z,13.75
2022-08-31T05:12:36.696Z,13.18
2022-08-31T05:15:07.208Z,13.15
2022-08-31T05:17:34.197Z,12.95
2022-08-31T05:20:01.047Z,13.60
2022-08-31T05:22:30.056Z,13.65
2022-08-31T05:24:57.951Z,12.40
2022-08-31T05:27:24.796Z,13.00
2022-08-31T05:29:51.844Z,13.77
2022-08-31T05:32:40.561Z,12.55
2022-08-31T05:35:10.043Z,13.82
2022-08-31T05:37:37.671Z,13.75
2022-08-31T05:40:05.857Z,12.93
2022-08-31T05:42:32.756Z,13.38
2022-08-31T05:44:59.630Z,14.77
2022-08-31T05:47:26.359Z,13.80
2022-08-31T05:49:53.646Z,14.63
2022-08-31T05:52:24.840Z,13.85
2022-08-31T05:54:52.583Z,15.32
2022-08-31T05:57:21.454Z,13.85
2022-08-31T05:59:52.300Z,15.82
2022-08-31T06:02:19.047Z,15.00
2022-08-31T06:04:45.850Z,15.10
2022-08-31T06:07:12.718Z,15.15
2022-08-31T06:09:44.274Z,14.93
2022-08-31T06:12:15.324Z,14.50
2022-08-31T06:14:45.637Z,15.20
2022-08-31T06:17:16.125Z,13.93
2022-08-31T06:19:43.502Z,14.25
2022-08-31T06:22:10.503Z,15.13
2022-08-31T06:24:38.090Z,14.95
2022-08-31T06:27:07.278Z,15.32
2022-08-31T06:29:36.438Z,16.48
2022-08-31T06:32:09.976Z,16.30
2022-08-31T06:34:42.684Z,16.38
2022-08-31T06:37:37.623Z,15.98
2022-08-31T06:40:09.974Z,17.30
2022-08-31T06:42:59.480Z,17.42
2022-08-31T06:45:47.958Z,16.58
2022-08-31T06:48:34.140Z,17.80
2022-08-31T06:51:04.393Z,17.55
2022-08-31T06:53:31.291Z,17.80
2022-08-31T06:56:23.291Z,18.45
2022-08-31T06:59:09.751Z,17.88
2022-08-31T07:01:53.679Z,19.10
2022-08-31T07:04:36.821Z,18.48
2022-08-31T07:07:06.521Z,18.90
2022-08-31T07:09:35.475Z,19.20
2022-08-31T07:12:04.453Z,19.13
2022-08-31T07:14:31.437Z,19.02
2022-08-31T07:16:59.242Z,18.92
2022-08-31T07:19:27.405Z,19.88
2022-08-31T07:21:58.219Z,19.73
2022-08-31T07:24:29.871Z,19.38
2022-08-31T07:27:15.002Z,20.50
2022-08-31T07:32:19.804Z,21.45
2022-08-31T07:34:56.327Z,21.08
2022-08-31T07:37:58.147Z,21.83
2022-08-31T07:40:48.429Z,23.83
2022-08-31T07:43:15.806Z,23.08
2022-08-31T07:45:44.140Z,22.23
2022-08-31T07:48:15.249Z,23.15
2022-08-31T07:51:00.142Z,22.05
2022-08-31T07:53:42.051Z,21.90
2022-08-31T07:56:29.234Z,22.45
2022-08-31T07:59:12.270Z,24.15
2022-08-31T08:01:41.176Z,25.75
2022-08-31T08:04:13.118Z,24.23
2022-08-31T08:07:00.243Z,25.88
2022-08-31T08:09:49.649Z,24.38
2022-08-31T08:12:36.216Z,24.17
2022-08-31T08:15:15.398Z,23.90
2022-08-31T08:18:05.660Z,24.50
2022-08-31T08:20:40.219Z,24.63
2022-08-31T08:23:13.789Z,25.02
2022-08-31T08:26:21.347Z,26.02
2022-08-31T08:29:09.544Z,25.85
2022-08-31T08:31:46.095Z,25.52
2022-08-31T08:34:13.238Z,25.15
2022-08-31T08:36:40.550Z,24.70
2022-08-31T08:39:12.943Z,24.92
2022-08-31T08:41:49.238Z,24.48
2022-08-31T08:44:18.760Z,25.35
2022-08-31T08:46:54.275Z,24.85
2022-08-31T08:49:29.209Z,24.35
2022-08-31T08:52:23.243Z,24.05
2022-08-31T08:54:51.997Z,24.30
2022-08-31T08:57:26.093Z,24.63
2022-08-31T08:59:58.673Z,24.77
2022-08-31T09:02:34.066Z,24.05
2022-08-31T09:05:25.174Z,24.83
2022-08-31T09:07:59.899Z,24.02
2022-08-31T09:10:35.565Z,24.50
2022-08-31T09:13:22.117Z,23.52
2022-08-31T09:15:56.401Z,23.35
2022-08-31T09:18:43.839Z,23.25
2022-08-31T09:21:29.492Z,22.95
2022-08-31T09:24:09.819Z,22.27
2022-08-31T09:27:17.640Z,22.70
2022-08-31T09:29:54.140Z,23.10
2022-08-31T09:32:31.375Z,22.95
2022-08-31T09:35:23.764Z,23.52
2022-08-31T09:38:03.543Z,23.23
2022-08-31T09:40:39.793Z,22.90
2022-08-31T09:43:34.979Z,22.10
2022-08-31T09:46:09.839Z,23.20
2022-08-31T09:51:36.508Z,22.88
2022-08-31T09:54:35.084Z,23.27
2022-08-31T09:57:05.146Z,23.17
2022-08-31T09:59:37.886Z,22.63
2022-08-31T10:02:26.750Z,23.23
2022-08-31T10:04:55.175Z,23.38
2022-08-31T10:07:48.906Z,22.98
2022-08-31T10:10:30.419Z,22.27
2022-08-31T10:13:15.353Z,23.75
2022-08-31T10:15:58.209Z,22.35
2022-08-31T10:18:59.889Z,22.85
2022-08-31T10:21:52.161Z,24.20
2022-08-31T10:24:43.709Z,23.40
2022-08-31T10:27:31.326Z,22.52
2022-08-31T10:30:11.484Z,22.92
2022-08-31T10:33:12.630Z,22.35
2022-08-31T10:36:00.599Z,23.27
2022-08-31T10:38:37.757Z,24.83
2022-08-31T10:41:12.918Z,23.13
2022-08-31T10:44:24.024Z,23.45
2022-08-31T10:46:54.999Z,22.98
2022-08-31T10:49:22.505Z,23.98
2022-08-31T10:52:11.250Z,23.85
2022-08-31T10:54:51.842Z,23.17
2022-08-31T10:57:31.469Z,24.85
2022-08-31T11:00:04.533Z,22.60
2022-08-31T11:02:45.231Z,24.25
2022-08-31T11:05:56.224Z,23.70
2022-08-31T11:08:49.693Z,22.95
2022-08-31T11:11:35.731Z,24.13
2022-08-31T11:14:44.917Z,23.80
2022-08-31T11:17:41.753Z,23.13
2022-08-31T11:20:47.197Z,22.02
2022-08-31T11:23:34.373Z,23.35
2022-08-31T11:26:15.193Z,23.38
2022-08-31T11:28:54.359Z,23.48
2022-08-31T11:31:24.839Z,23.23
2022-08-31T11:34:15.571Z,23.20
2022-08-31T11:36:49.937Z,23.20
2022-08-31T11:39:26.750Z,22.77
2022-08-31T11:41:58.996Z,23.33
2022-08-31T11:44:36.945Z,23.50
2022-08-31T11:47:05.977Z,23.92
2022-08-31T11:49:45.474Z,23.40
2022-08-31T11:52:41.029Z,23.25
2022-08-31T11:55:21.624Z,24.08
2022-08-31T11:58:07.633Z,22.27
2022-08-31T12:00:58.379Z,22.75
2022-08-31T12:03:43.042Z,22.92
2022-08-31T12:06:37.871Z,24.17
2022-08-31T12:09:30.056Z,24.67
2022-08-31T12:12:22.588Z,23.45
2022-08-31T12:14:52.975Z,23.25
2022-08-31T12:17:36.357Z,22.73
2022-08-31T12:20:18.112Z,22.48
2022-08-31T12:23:30.266Z,22.58
2022-08-31T12:26:07.255Z,24.15
2022-08-31T12:29:14.645Z,24.08
2022-08-31T12:31:53.764Z,22.25
2022-08-31T12:34:23.666Z,23.60
2022-08-31T12:36:52.041Z,23.33
2022-08-31T12:39:28.801Z,22.90
2022-08-31T12:42:05.758Z,22.02
2022-08-31T12:44:46.219Z,23.25
2022-08-31T12:47:41.915Z,23.48
2022-08-31T12:53:11.309Z,22.95
2022-08-31T12:55:55.663Z,23.77
2022-08-31T12:59:00.273Z,23.00
2022-08-31T13:01:28.230Z,23.05
2022-08-31T13:03:59.393Z,22.88
2022-08-31T13:06:32.452Z,24.63
2022-08-31T13:09:00.296Z,24.27
2022-08-31T13:11:35.361Z,24.00
2022-08-31T13:14:22.859Z,24.60
2022-08-31T13:17:11.584Z,23.75
2022-08-31T13:19:49.804Z,23.95
2022-08-31T13:22:30.278Z,24.48
2022-08-31T13:25:12.941Z,25.27
2022-08-31T13:27:47.507Z,23.60
2022-08-31T13:30:18.948Z,23.23
2022-08-31T13:32:54.652Z,24.38
2022-08-31T13:35:28.111Z,23.77
2022-08-31T13:38:05.751Z,23.50
2022-08-31T13:40:37.137Z,22.52
2022-08-31T13:43:06.925Z,23.67
2022-08-31T13:45:58.574Z,23.90
2022-08-31T13:48:34.239Z,23.55
2022-08-31T13:51:12.871Z,22.88
2022-08-31T13:53:42.499Z,23.17
2022-08-31T13:56:50.279Z,22.83
2022-08-31T13:59:29.030Z,23.40
2022-08-31T14:02:01.179Z,22.90
2022-08-31T14:04:48.369Z,25.00
2022-08-31T14:07:23.787Z,24.13
2022-08-31T14:09:58.361Z,23.02
2022-08-31T14:12:46.000Z,22.83
2022-08-31T14:15:17.798Z,23.52
2022-08-31T14:18:24.061Z,23.05
2022-08-31T14:20:49.644Z,22.75
2022-08-31T14:23:32.147Z,23.52
2022-08-31T14:26:15.562Z,24.45
2022-08-31T14:28:46.481Z,24.42
2022-08-31T14:31:24.380Z,23.33
2022-08-31T14:34:11.313Z,24.42
2022-08-31T14:36:50.971Z,24.25
2022-08-31T14:39:30.738Z,23.92
2022-08-31T14:42:19.187Z,24.33
2022-08-31T14:44:47.839Z,24.40
2022-08-31T14:47:14.683Z,23.67
2022-08-31T14:49:45.243Z,23.95
2022-08-31T14:52:12.939Z,22.92
2022-08-31T14:54:40.945Z,24.63
2022-08-31T14:57:13.129Z,23.92
2022-08-31T14:59:42.920Z,24.95
2022-08-31T15:02:12.612Z,24.45
2022-08-31T15:04:45.460Z,24.30
2022-08-31T15:07:13.777Z,23.60
2022-08-31T15:09:42.306Z,24.17
2022-08-31T15:12:11.836Z,23.58
2022-08-31T15:14:43.096Z,23.52
2022-08-31T15:17:13.051Z,23.88
2022-08-31T15:19:50.084Z,22.55
2022-08-31T15:22:17.458Z,22.48
2022-08-31T15:24:45.126Z,23.45
2022-08-31T15:27:15.738Z,22.85
2022-08-31T15:29:45.327Z,22.98
2022-08-31T15:32:16.465Z,23.30
2022-08-31T15:34:53.533Z,23.38
2022-08-31T15:37:21.325Z,22.88
2022-08-31T15:39:49.295Z,22.75
2022-08-31T15:42:20.354Z,23.88
2022-08-31T15:44:55.830Z,23.95
2022-08-31T15:47:51.115Z,23.60
2022-08-31T15:53:39.180Z,23.73
2022-08-31T15:56:06.507Z,23.58
2022-08-31T15:58:34.665Z,23.88
2022-08-31T16:01:02.121Z,23.23
2022-08-31T16:03:35.142Z,23.00
2022-08-31T16:06:04.002Z,23.00
2022-08-31T16:08:30.729Z,23.30
2022-08-31T16:10:57.409Z,22.63
2022-08-31T16:13:24.125Z,22.98
2022-08-31T16:15:51.879Z,22.05
2022-08-31T16:18:23.209Z,22.73
2022-08-31T16:20:50.701Z,22.20
2022-08-31T16:23:18.850Z,22.58
2022-08-31T16:25:48.364Z,22.00
2022-08-31T16:28:17.441Z,22.67
2022-08-31T16:30:45.035Z,22.20
2022-08-31T16:33:12.087Z,22.00
2022-08-31T16:35:39.663Z,22.27
2022-08-31T16:38:07.360Z,22.67
2022-08-31T16:40:35.386Z,22.52
2022-08-31T16:43:03.095Z,23.38
2022-08-31T16:45:30.287Z,23.17
2022-08-31T16:48:17.114Z,23.05
2022-08-31T16:50:47.555Z,23.02
2022-08-31T16:53:17.917Z,22.75
2022-08-31T16:55:47.252Z,23.02
2022-08-31T16:58:24.868Z,23.73
2022-08-31T17:01:03.377Z,23.75
2022-08-31T17:03:30.178Z,24.30
2022-08-31T17:05:56.934Z,26.33
2022-08-31T17:08:23.745Z,25.88
2022-08-31T17:10:51.220Z,24.13
2022-08-31T17:13:18.217Z,26.63
2022-08-31T17:15:44.932Z,26.45
2022-08-31T17:18:11.844Z,23.27
2022-08-31T17:20:40.751Z,23.88
2022-08-31T17:23:08.417Z,23.38
2022-08-31T17:25:35.675Z,24.23
2022-08-31T17:28:07.499Z,23.63
2022-08-31T17:30:34.494Z,23.48
2022-08-31T17:33:01.429Z,23.85
2022-08-31T17:35:29.422Z,23.55
2022-08-31T17:37:56.411Z,23.08
2022-08-31T17:40:23.146Z,22.10
2022-08-31T17:42:51.922Z,22.63
2022-08-31T17:45:21.162Z,21.98
2022-08-31T17:47:47.885Z,21.58
2022-08-31T17:50:17.098Z,22.17
2022-08-31T17:52:47.128Z,21.73
2022-08-31T17:55:14.475Z,21.67
2022-08-31T17:57:42.208Z,22.27
2022-08-31T18:00:09.917Z,22.27
2022-08-31T18:02:37.551Z,22.48
2022-08-31T18:05:09.658Z,19.50
2022-08-31T18:07:39.571Z,19.75
2022-08-31T18:10:06.763Z,19.55
2022-08-31T18:12:40.736Z,19.00
2022-08-31T18:15:09.977Z,18.90
2022-08-31T18:17:36.716Z,19.30
2022-08-31T18:20:04.463Z,19.00
2022-08-31T18:22:31.165Z,19.25
2022-08-31T18:24:58.162Z,22.27
2022-08-31T18:27:24.887Z,19.23
2022-08-31T18:29:52.628Z,18.92
2022-08-31T18:32:19.354Z,19.50
2022-08-31T18:34:47.335Z,20.58
2022-08-31T18:37:21.857Z,20.08
2022-08-31T18:40:08.468Z,19.73
2022-08-31T18:42:56.791Z,19.13
2022-08-31T18:45:25.517Z,19.48
2022-08-31T18:48:23.377Z,19.85
2022-08-31T18:50:44.005Z,19.83
2022-08-31T18:53:15.653Z,19.40
2022-08-31T18:55:54.780Z,19.83
2022-08-31T18:58:21.539Z,19.85
2022-08-31T19:00:55.975Z,20.02
2022-08-31T19:03:24.026Z,19.42
2022-08-31T19:05:50.789Z,19.52
2022-08-31T19:08:17.515Z,19.92
2022-08-31T19:10:44.386Z,19.33
2022-08-31T19:13:11.218Z,19.60
2022-08-31T19:15:39.892Z,19.33
2022-08-31T19:18:07.319Z,19.50
2022-08-31T19:20:35.402Z,19.30
2022-08-31T19:23:02.631Z,19.70
2022-08-31T19:25:30.758Z,19.70
2022-08-31T19:28:01.151Z,19.67
2022-08-31T19:30:30.121Z,19.15
2022-08-31T19:32:56.963Z,19.38
2022-08-31T19:35:27.057Z,19.60
2022-08-31T19:37:56.009Z,20.05
2022-08-31T19:40:23.004Z,19.10
2022-08-31T19:45:45.713Z,19.17
2022-08-31T19:48:12.989Z,18.23
2022-08-31T19:50:42.226Z,18.45
2022-08-31T19:53:13.484Z,18.63
2022-08-31T19:55:50.216Z,18.73
2022-08-31T19:58:22.431Z,18.92
2022-08-31T20:00:49.824Z,19.40
2022-08-31T20:03:19.091Z,19.10
2022-08-31T20:05:46.378Z,18.70
2022-08-31T20:08:13.208Z,18.30
2022-08-31T20:10:44.878Z,18.92
2022-08-31T20:13:12.765Z,18.98
2022-08-31T20:15:42.098Z,19.27
2022-08-31T20:18:11.177Z,18.75
2022-08-31T20:20:45.525Z,19.10
2022-08-31T20:23:16.392Z,19.52
2022-08-31T20:25:45.096Z,19.20
2022-08-31T20:28:13.231Z,19.30
2022-08-31T20:30:42.118Z,19.45
2022-08-31T20:33:11.164Z,19.55
2022-08-31T20:35:42.488Z,19.38
2022-08-31T20:38:13.135Z,19.35
2022-08-31T20:40:42.306Z,18.98
2022-08-31T20:43:10.772Z,19.35
2022-08-31T20:45:39.120Z,19.10
2022-08-31T20:48:25.496Z,19.52
2022-08-31T20:50:52.861Z,18.80
2022-08-31T20:53:24.890Z,18.90
2022-08-31T20:56:07.925Z,19.20
2022-08-31T20:58:35.006Z,18.98
2022-08-31T21:01:06.822Z,19.30
2022-08-31T21:03:34.491Z,18.63
2022-08-31T21:06:11.181Z,19.00
2022-08-31T21:08:46.007Z,18.80
2022-08-31T21:11:18.317Z,18.80
2022-08-31T21:13:46.720Z,18.40
2022-08-31T21:16:19.302Z,18.98
2022-08-31T21:18:49.248Z,19.05
2022-08-31T21:21:17.396Z,19.40
2022-08-31T21:23:45.664Z,18.85
2022-08-31T21:26:19.516Z,19.05
2022-08-31T21:28:48.558Z,19.67
2022-08-31T21:31:28.788Z,19.48
2022-08-31T21:34:02.056Z,19.05
2022-08-31T21:36:33.017Z,19.70
2022-08-31T21:39:00.597Z,18.80
2022-08-31T21:41:28.958Z,19.40
2022-08-31T21:43:57.184Z,19.33
2022-08-31T21:46:26.700Z,19.02
2022-08-31T21:48:55.993Z,19.30
2022-08-31T21:51:32.233Z,19.48
2022-08-31T21:54:05.193Z,19.05
2022-08-31T21:56:36.411Z,18.95
2022-08-31T21:59:06.812Z,19.83
2022-08-31T22:01:35.094Z,18.75
2022-08-31T22:04:02.069Z,19.23
2022-08-31T22:06:31.374Z,19.30
2022-08-31T22:09:01.432Z,19.27
2022-08-31T22:11:30.593Z,19.65
2022-08-31T22:13:59.082Z,18.92
2022-08-31T22:16:26.186Z,19.20
2022-08-31T22:19:01.306Z,19.02
2022-08-31T22:21:32.084Z,19.13
2022-08-31T22:24:05.970Z,19.50
2022-08-31T22:26:35.880Z,19.05
2022-08-31T22:29:04.126Z,19.63
2022-08-31T22:31:37.037Z,19.30
2022-08-31T22:34:05.469Z,18.95
2022-08-31T22:36:32.647Z,19.15
2022-08-31T22:39:08.829Z,19.73
2022-08-31T22:41:37.197Z,19.15
2022-08-31T22:44:06.286Z,19.70
2022-08-31T22:46:34.143Z,19.55
2022-08-31T22:49:01.057Z,19.30
2022-08-31T22:51:27.862Z,19.88
2022-08-31T22:53:54.822Z,19.40
2022-08-31T22:56:25.990Z,19.67
2022-08-31T22:59:06.827Z,19.70
2022-08-31T23:01:41.758Z,19.95
2022-08-31T23:04:13.005Z,20.02
2022-08-31T23:06:40.008Z,19.88
2022-08-31T23:09:09.286Z,20.02
2022-08-31T23:11:37.442Z,20.08
2022-08-31T23:14:07.571Z,20.42
2022-08-31T23:16:46.067Z,20.73
2022-08-31T23:19:14.425Z,20.63
2022-08-31T23:21:45.819Z,20.88
2022-08-31T23:24:16.582Z,20.55
2022-08-31T23:26:45.150Z,21.15
2022-08-31T23:29:13.528Z,20.80
2022-08-31T23:31:40.669Z,20.35
2022-08-31T23:34:12.941Z,19.98
2022-08-31T23:36:41.701Z,19.95
2022-08-31T23:39:09.193Z,19.98
2022-08-31T23:41:38.891Z,20.23
2022-08-31T23:44:09.113Z,19.40
2022-08-31T23:46:38.775Z,19.27
2022-08-31T23:49:08.114Z,18.98
2022-08-31T23:51:35.640Z,19.20
2022-08-31T23:54:07.612Z,19.05
2022-08-31T23:56:40.694Z,19.17
2022-08-31T23:59:10.923Z,19.27
